sensor_id;sensor_type;location;lat;lon;timestamp;temperature;humidity
7163;DHT22;3623;47.098;15.446;2023-09-07T00:01:57;15.10;99.90
7163;DHT22;3623;47.098;15.446;2023-09-07T00:04:24;15.10;99.90
7163;DHT22;3623;47.098;15.446;2023-09-07T00:06:51;15.10;99.90
7163;DHT22;3623;47.098;15.446;2023-09-07T00:09:18;15.00;99.90
7163;DHT22;3623;47.098;15.446;2023-09-07T00:11:47;15.00;99.90
7163;DHT22;3623;47.098;15.446;2023-09-07T00:14:16;14.90;99.90
7163;DHT22;3623;47.098;15.446;2023-09-07T00:16:44;14.90;99.90
7163;DHT22;3623;47.098;15.446;2023-09-07T00:19:11;14.90;99.90
7163;DHT22;3623;47.098;15.446;2023-09-07T00:21:38;15.20;99.90
7163;DHT22;3623;47.098;15.446;2023-09-07T00:24:06;14.80;99.90
7163;DHT22;3623;47.098;15.446;2023-09-07T00:26:36;14.80;99.90
7163;DHT22;3623;47.098;15.446;2023-09-07T00:29:03;14.80;99.90
7163;DHT22;3623;47.098;15.446;2023-09-07T00:31:32;14.80;99.90
7163;DHT22;3623;47.098;15.446;2023-09-07T00:34:00;14.70;99.90
7163;DHT22;3623;47.098;15.446;2023-09-07T00:36:28;14.80;99.90
7163;DHT22;3623;47.098;15.446;2023-09-07T00:38:55;14.70;99.90
7163;DHT22;3623;47.098;15.446;2023-09-07T00:41:22;14.80;99.90
7163;DHT22;3623;47.098;15.446;2023-09-07T00:43:49;14.70;99.90
7163;DHT22;3623;47.098;15.446;2023-09-07T00:46:16;14.70;99.90
7163;DHT22;3623;47.098;15.446;2023-09-07T00:48:44;14.80;99.90
7163;DHT22;3623;47.098;15.446;2023-09-07T00:51:12;14.80;99.90
7163;DHT22;3623;47.098;15.446;2023-09-07T00:53:40;14.70;99.90
7163;DHT22;3623;47.098;15.446;2023-09-07T00:56:07;14.70;99.90
7163;DHT22;3623;47.098;15.446;2023-09-07T00:58:36;14.70;99.90
7163;DHT22;3623;47.098;15.446;2023-09-07T01:01:06;14.70;99.90
7163;DHT22;3623;47.098;15.446;2023-09-07T01:03:33;14.70;99.90
7163;DHT22;3623;47.098;15.446;2023-09-07T01:06:04;14.70;99.90
7163;DHT22;3623;47.098;15.446;2023-09-07T01:08:39;14.80;99.90
7163;DHT22;3623;47.098;15.446;2023-09-07T01:11:14;14.70;99.90
7163;DHT22;3623;47.098;15.446;2023-09-07T01:13:41;14.60;99.90
7163;DHT22;3623;47.098;15.446;2023-09-07T01:16:23;14.90;99.90
7163;DHT22;3623;47.098;15.446;2023-09-07T01:18:50;14.60;99.90
7163;DHT22;3623;47.098;15.446;2023-09-07T01:21:18;14.60;99.90
7163;DHT22;3623;47.098;15.446;2023-09-07T01:23:47;14.60;99.90
7163;DHT22;3623;47.098;15.446;2023-09-07T01:26:14;14.60;99.90
7163;DHT22;3623;47.098;15.446;2023-09-07T01:28:41;14.50;99.90
7163;DHT22;3623;47.098;15.446;2023-09-07T01:31:09;14.70;99.90
7163;DHT22;3623;47.098;15.446;2023-09-07T01:33:36;14.70;99.90
7163;DHT22;3623;47.098;15.446;2023-09-07T01:36:04;14.40;99.90
7163;DHT22;3623;47.098;15.446;2023-09-07T01:38:31;14.70;99.90
7163;DHT22;3623;47.098;15.446;2023-09-07T01:40:59;14.30;99.90
7163;DHT22;3623;47.098;15.446;2023-09-07T01:43:26;14.80;99.90
7163;DHT22;3623;47.098;15.446;2023-09-07T01:45:53;14.30;99.90
7163;DHT22;3623;47.098;15.446;2023-09-07T01:48:21;14.30;99.90
7163;DHT22;3623;47.098;15.446;2023-09-07T01:50:52;14.30;99.90
7163;DHT22;3623;47.098;15.446;2023-09-07T01:53:19;14.50;99.90
7163;DHT22;3623;47.098;15.446;2023-09-07T01:55:46;14.40;99.90
7163;DHT22;3623;47.098;15.446;2023-09-07T01:58:15;14.60;99.90
7163;DHT22;3623;47.098;15.446;2023-09-07T02:00:42;14.30;99.90
7163;DHT22;3623;47.098;15.446;2023-09-07T02:03:10;14.30;99.90
7163;DHT22;3623;47.098;15.446;2023-09-07T02:05:37;14.50;99.90
7163;DHT22;3623;47.098;15.446;2023-09-07T02:08:05;14.50;99.90
7163;DHT22;3623;47.098;15.446;2023-09-07T02:10:32;14.30;99.90
7163;DHT22;3623;47.098;15.446;2023-09-07T02:12:59;14.30;99.90
7163;DHT22;3623;47.098;15.446;2023-09-07T02:15:28;14.30;99.90
7163;DHT22;3623;47.098;15.446;2023-09-07T02:17:55;14.20;99.90
7163;DHT22;3623;47.098;15.446;2023-09-07T02:20:22;14.10;99.90
7163;DHT22;3623;47.098;15.446;2023-09-07T02:22:50;14.40;99.90
7163;DHT22;3623;47.098;15.446;2023-09-07T02:25:17;14.30;99.90
7163;DHT22;3623;47.098;15.446;2023-09-07T02:27:44;14.30;99.90
7163;DHT22;3623;47.098;15.446;2023-09-07T02:30:11;14.30;99.90
7163;DHT22;3623;47.098;15.446;2023-09-07T02:32:41;14.20;99.90
7163;DHT22;3623;47.098;15.446;2023-09-07T02:35:09;14.20;99.90
7163;DHT22;3623;47.098;15.446;2023-09-07T02:37:36;14.20;99.90
7163;DHT22;3623;47.098;15.446;2023-09-07T02:40:04;14.20;99.90
7163;DHT22;3623;47.098;15.446;2023-09-07T02:42:35;14.30;99.90
7163;DHT22;3623;47.098;15.446;2023-09-07T02:45:05;14.10;99.90
7163;DHT22;3623;47.098;15.446;2023-09-07T02:47:32;14.20;99.90
7163;DHT22;3623;47.098;15.446;2023-09-07T02:50:00;13.30;99.90
7163;DHT22;3623;47.098;15.446;2023-09-07T02:52:27;14.00;99.90
7163;DHT22;3623;47.098;15.446;2023-09-07T02:54:55;14.00;99.90
7163;DHT22;3623;47.098;15.446;2023-09-07T02:57:22;14.20;99.90
7163;DHT22;3623;47.098;15.446;2023-09-07T02:59:49;13.80;99.90
7163;DHT22;3623;47.098;15.446;2023-09-07T03:02:16;14.20;99.90
7163;DHT22;3623;47.098;15.446;2023-09-07T03:04:43;14.00;99.90
7163;DHT22;3623;47.098;15.446;2023-09-07T03:07:11;14.00;99.90
7163;DHT22;3623;47.098;15.446;2023-09-07T03:09:39;13.90;99.90
7163;DHT22;3623;47.098;15.446;2023-09-07T03:12:06;14.10;99.90
7163;DHT22;3623;47.098;15.446;2023-09-07T03:14:33;13.90;99.90
7163;DHT22;3623;47.098;15.446;2023-09-07T03:17:00;14.00;99.90
7163;DHT22;3623;47.098;15.446;2023-09-07T03:19:29;13.90;99.90
7163;DHT22;3623;47.098;15.446;2023-09-07T03:21:56;14.10;99.90
7163;DHT22;3623;47.098;15.446;2023-09-07T03:24:25;13.90;99.90
7163;DHT22;3623;47.098;15.446;2023-09-07T03:26:52;14.10;99.90
7163;DHT22;3623;47.098;15.446;2023-09-07T03:29:19;14.10;99.90
7163;DHT22;3623;47.098;15.446;2023-09-07T03:31:46;14.10;99.90
7163;DHT22;3623;47.098;15.446;2023-09-07T03:34:13;13.90;99.90
7163;DHT22;3623;47.098;15.446;2023-09-07T03:36:40;13.90;99.90
7163;DHT22;3623;47.098;15.446;2023-09-07T03:39:07;13.90;99.90
7163;DHT22;3623;47.098;15.446;2023-09-07T03:41:37;14.00;99.90
7163;DHT22;3623;47.098;15.446;2023-09-07T03:44:04;13.90;99.90
7163;DHT22;3623;47.098;15.446;2023-09-07T03:46:31;13.90;99.90
7163;DHT22;3623;47.098;15.446;2023-09-07T03:48:58;13.90;99.90
7163;DHT22;3623;47.098;15.446;2023-09-07T03:51:26;13.90;99.90
7163;DHT22;3623;47.098;15.446;2023-09-07T03:53:53;13.80;99.90
7163;DHT22;3623;47.098;15.446;2023-09-07T03:56:20;13.90;99.90
7163;DHT22;3623;47.098;15.446;2023-09-07T03:58:48;13.90;99.90
7163;DHT22;3623;47.098;15.446;2023-09-07T04:01:15;14.00;99.90
7163;DHT22;3623;47.098;15.446;2023-09-07T04:03:42;13.80;99.90
7163;DHT22;3623;47.098;15.446;2023-09-07T04:06:09;13.90;99.90
7163;DHT22;3623;47.098;15.446;2023-09-07T04:08:37;13.80;99.90
7163;DHT22;3623;47.098;15.446;2023-09-07T04:11:05;14.00;99.90
7163;DHT22;3623;47.098;15.446;2023-09-07T04:13:32;13.80;99.90
7163;DHT22;3623;47.098;15.446;2023-09-07T04:16:00;13.80;99.90
7163;DHT22;3623;47.098;15.446;2023-09-07T04:18:28;13.80;99.90
7163;DHT22;3623;47.098;15.446;2023-09-07T04:21:04;14.00;99.90
7163;DHT22;3623;47.098;15.446;2023-09-07T04:23:32;13.80;99.90
7163;DHT22;3623;47.098;15.446;2023-09-07T04:26:05;13.90;99.90
7163;DHT22;3623;47.098;15.446;2023-09-07T04:28:32;13.80;99.90
7163;DHT22;3623;47.098;15.446;2023-09-07T04:31:01;13.80;99.90
7163;DHT22;3623;47.098;15.446;2023-09-07T04:33:30;14.00;99.90
7163;DHT22;3623;47.098;15.446;2023-09-07T04:36:09;13.80;99.90
7163;DHT22;3623;47.098;15.446;2023-09-07T04:38:37;13.90;99.90
7163;DHT22;3623;47.098;15.446;2023-09-07T04:41:07;13.80;99.90
7163;DHT22;3623;47.098;15.446;2023-09-07T04:43:35;13.50;99.90
7163;DHT22;3623;47.098;15.446;2023-09-07T04:46:03;13.90;99.90
7163;DHT22;3623;47.098;15.446;2023-09-07T04:48:32;13.90;99.90
7163;DHT22;3623;47.098;15.446;2023-09-07T04:50:59;13.80;99.90
7163;DHT22;3623;47.098;15.446;2023-09-07T04:53:28;13.70;99.90
7163;DHT22;3623;47.098;15.446;2023-09-07T04:55:56;13.70;99.90
7163;DHT22;3623;47.098;15.446;2023-09-07T04:58:23;13.70;99.90
7163;DHT22;3623;47.098;15.446;2023-09-07T05:00:51;13.80;99.90
7163;DHT22;3623;47.098;15.446;2023-09-07T05:03:19;13.80;99.90
7163;DHT22;3623;47.098;15.446;2023-09-07T05:05:52;13.80;99.90
7163;DHT22;3623;47.098;15.446;2023-09-07T05:08:20;13.80;99.90
7163;DHT22;3623;47.098;15.446;2023-09-07T05:10:48;13.90;99.90
7163;DHT22;3623;47.098;15.446;2023-09-07T05:13:15;14.00;99.90
7163;DHT22;3623;47.098;15.446;2023-09-07T05:15:47;14.00;99.90
7163;DHT22;3623;47.098;15.446;2023-09-07T05:18:15;14.00;99.90
7163;DHT22;3623;47.098;15.446;2023-09-07T05:20:43;14.00;99.90
7163;DHT22;3623;47.098;15.446;2023-09-07T05:23:12;14.00;99.90
7163;DHT22;3623;47.098;15.446;2023-09-07T05:25:44;14.20;99.90
7163;DHT22;3623;47.098;15.446;2023-09-07T05:28:13;14.20;99.90
7163;DHT22;3623;47.098;15.446;2023-09-07T05:30:40;14.00;99.90
7163;DHT22;3623;47.098;15.446;2023-09-07T05:33:09;14.10;99.90
7163;DHT22;3623;47.098;15.446;2023-09-07T05:35:36;14.10;99.90
7163;DHT22;3623;47.098;15.446;2023-09-07T05:38:05;14.20;99.90
7163;DHT22;3623;47.098;15.446;2023-09-07T05:40:34;14.20;99.90
7163;DHT22;3623;47.098;15.446;2023-09-07T05:43:01;14.20;99.90
7163;DHT22;3623;47.098;15.446;2023-09-07T05:45:29;14.30;99.90
7163;DHT22;3623;47.098;15.446;2023-09-07T05:47:57;14.30;99.90
7163;DHT22;3623;47.098;15.446;2023-09-07T05:50:24;14.40;99.90
7163;DHT22;3623;47.098;15.446;2023-09-07T05:52:51;14.40;99.90
7163;DHT22;3623;47.098;15.446;2023-09-07T05:55:20;14.60;99.90
7163;DHT22;3623;47.098;15.446;2023-09-07T05:57:48;14.50;99.90
7163;DHT22;3623;47.098;15.446;2023-09-07T06:00:15;14.60;99.90
7163;DHT22;3623;47.098;15.446;2023-09-07T06:02:43;14.80;99.90
7163;DHT22;3623;47.098;15.446;2023-09-07T06:05:10;14.70;99.90
7163;DHT22;3623;47.098;15.446;2023-09-07T06:07:37;14.90;99.90
7163;DHT22;3623;47.098;15.446;2023-09-07T06:10:05;15.00;99.90
7163;DHT22;3623;47.098;15.446;2023-09-07T06:12:34;15.60;99.90
7163;DHT22;3623;47.098;15.446;2023-09-07T06:15:02;15.50;99.90
7163;DHT22;3623;47.098;15.446;2023-09-07T06:17:29;15.60;99.90
7163;DHT22;3623;47.098;15.446;2023-09-07T06:19:56;15.50;99.90
7163;DHT22;3623;47.098;15.446;2023-09-07T06:22:23;15.50;99.90
7163;DHT22;3623;47.098;15.446;2023-09-07T06:24:51;15.50;99.90
7163;DHT22;3623;47.098;15.446;2023-09-07T06:27:18;15.50;99.90
7163;DHT22;3623;47.098;15.446;2023-09-07T06:29:46;15.90;99.90
7163;DHT22;3623;47.098;15.446;2023-09-07T06:32:13;15.80;99.90
7163;DHT22;3623;47.098;15.446;2023-09-07T06:34:40;16.00;99.90
7163;DHT22;3623;47.098;15.446;2023-09-07T06:37:07;16.30;99.90
7163;DHT22;3623;47.098;15.446;2023-09-07T06:39:34;16.50;99.90
7163;DHT22;3623;47.098;15.446;2023-09-07T06:42:02;16.60;99.90
7163;DHT22;3623;47.098;15.446;2023-09-07T06:44:29;16.70;99.90
7163;DHT22;3623;47.098;15.446;2023-09-07T06:46:58;16.80;99.90
7163;DHT22;3623;47.098;15.446;2023-09-07T06:49:25;17.10;99.90
7163;DHT22;3623;47.098;15.446;2023-09-07T06:51:55;17.30;99.90
7163;DHT22;3623;47.098;15.446;2023-09-07T06:54:22;17.30;99.90
7163;DHT22;3623;47.098;15.446;2023-09-07T06:56:49;17.20;99.90
7163;DHT22;3623;47.098;15.446;2023-09-07T06:59:16;17.30;99.90
7163;DHT22;3623;47.098;15.446;2023-09-07T07:01:43;17.00;99.90
7163;DHT22;3623;47.098;15.446;2023-09-07T07:04:12;16.90;99.90
7163;DHT22;3623;47.098;15.446;2023-09-07T07:06:39;16.90;99.90
7163;DHT22;3623;47.098;15.446;2023-09-07T07:09:06;16.90;99.90
7163;DHT22;3623;47.098;15.446;2023-09-07T07:11:34;16.90;99.90
7163;DHT22;3623;47.098;15.446;2023-09-07T07:14:02;17.00;99.90
7163;DHT22;3623;47.098;15.446;2023-09-07T07:16:29;17.00;99.90
7163;DHT22;3623;47.098;15.446;2023-09-07T07:18:56;17.20;99.90
7163;DHT22;3623;47.098;15.446;2023-09-07T07:21:24;17.50;99.90
7163;DHT22;3623;47.098;15.446;2023-09-07T07:23:51;17.80;99.90
7163;DHT22;3623;47.098;15.446;2023-09-07T07:26:18;18.10;99.90
7163;DHT22;3623;47.098;15.446;2023-09-07T07:28:45;18.20;99.90
7163;DHT22;3623;47.098;15.446;2023-09-07T07:31:12;18.30;99.90
7163;DHT22;3623;47.098;15.446;2023-09-07T07:33:40;18.60;99.90
7163;DHT22;3623;47.098;15.446;2023-09-07T07:36:07;18.70;99.90
7163;DHT22;3623;47.098;15.446;2023-09-07T07:38:35;18.60;99.90
7163;DHT22;3623;47.098;15.446;2023-09-07T07:41:03;18.70;99.90
7163;DHT22;3623;47.098;15.446;2023-09-07T07:43:32;18.70;99.90
7163;DHT22;3623;47.098;15.446;2023-09-07T07:45:59;18.70;99.90
7163;DHT22;3623;47.098;15.446;2023-09-07T07:48:26;18.70;99.90
7163;DHT22;3623;47.098;15.446;2023-09-07T07:50:55;18.70;99.90
7163;DHT22;3623;47.098;15.446;2023-09-07T07:53:22;18.70;99.90
7163;DHT22;3623;47.098;15.446;2023-09-07T07:55:51;18.70;99.90
7163;DHT22;3623;47.098;15.446;2023-09-07T07:58:18;18.80;99.90
7163;DHT22;3623;47.098;15.446;2023-09-07T08:00:45;18.90;99.90
7163;DHT22;3623;47.098;15.446;2023-09-07T08:03:16;19.10;99.90
7163;DHT22;3623;47.098;15.446;2023-09-07T08:05:43;19.00;99.90
7163;DHT22;3623;47.098;15.446;2023-09-07T08:08:10;19.10;99.90
7163;DHT22;3623;47.098;15.446;2023-09-07T08:10:38;19.10;99.90
7163;DHT22;3623;47.098;15.446;2023-09-07T08:13:08;19.20;99.90
7163;DHT22;3623;47.098;15.446;2023-09-07T08:15:35;19.30;99.90
7163;DHT22;3623;47.098;15.446;2023-09-07T08:18:03;19.60;99.90
7163;DHT22;3623;47.098;15.446;2023-09-07T08:20:32;19.50;99.90
7163;DHT22;3623;47.098;15.446;2023-09-07T08:22:59;19.60;99.90
7163;DHT22;3623;47.098;15.446;2023-09-07T08:25:29;20.00;99.90
7163;DHT22;3623;47.098;15.446;2023-09-07T08:27:56;20.20;99.90
7163;DHT22;3623;47.098;15.446;2023-09-07T08:30:26;20.40;99.90
7163;DHT22;3623;47.098;15.446;2023-09-07T08:32:54;20.40;99.90
7163;DHT22;3623;47.098;15.446;2023-09-07T08:35:21;20.30;99.90
7163;DHT22;3623;47.098;15.446;2023-09-07T08:37:52;20.40;99.90
7163;DHT22;3623;47.098;15.446;2023-09-07T08:40:19;20.60;99.90
7163;DHT22;3623;47.098;15.446;2023-09-07T08:42:53;20.80;99.90
7163;DHT22;3623;47.098;15.446;2023-09-07T08:45:22;21.00;99.90
7163;DHT22;3623;47.098;15.446;2023-09-07T08:47:55;21.10;99.90
7163;DHT22;3623;47.098;15.446;2023-09-07T08:50:24;21.10;99.90
7163;DHT22;3623;47.098;15.446;2023-09-07T08:52:52;21.10;99.90
7163;DHT22;3623;47.098;15.446;2023-09-07T08:55:20;21.40;99.90
7163;DHT22;3623;47.098;15.446;2023-09-07T08:57:48;21.60;99.90
7163;DHT22;3623;47.098;15.446;2023-09-07T09:00:16;21.60;99.90
7163;DHT22;3623;47.098;15.446;2023-09-07T09:02:46;21.80;99.90
7163;DHT22;3623;47.098;15.446;2023-09-07T09:05:15;21.80;99.90
7163;DHT22;3623;47.098;15.446;2023-09-07T09:07:43;21.80;99.90
7163;DHT22;3623;47.098;15.446;2023-09-07T09:10:11;21.80;99.90
7163;DHT22;3623;47.098;15.446;2023-09-07T09:12:45;21.80;99.90
7163;DHT22;3623;47.098;15.446;2023-09-07T09:15:14;21.80;99.90
7163;DHT22;3623;47.098;15.446;2023-09-07T09:17:42;21.80;99.90
7163;DHT22;3623;47.098;15.446;2023-09-07T09:20:22;21.90;99.90
7163;DHT22;3623;47.098;15.446;2023-09-07T09:22:51;22.10;99.90
7163;DHT22;3623;47.098;15.446;2023-09-07T09:25:19;22.10;99.90
7163;DHT22;3623;47.098;15.446;2023-09-07T09:27:46;22.00;99.90
7163;DHT22;3623;47.098;15.446;2023-09-07T09:30:16;21.90;99.90
7163;DHT22;3623;47.098;15.446;2023-09-07T09:32:43;22.00;99.90
7163;DHT22;3623;47.098;15.446;2023-09-07T09:35:11;22.20;99.90
7163;DHT22;3623;47.098;15.446;2023-09-07T09:38:00;22.50;99.90
7163;DHT22;3623;47.098;15.446;2023-09-07T09:40:30;22.60;99.90
7163;DHT22;3623;47.098;15.446;2023-09-07T09:42:58;22.70;99.90
7163;DHT22;3623;47.098;15.446;2023-09-07T09:45:27;22.90;99.90
7163;DHT22;3623;47.098;15.446;2023-09-07T09:48:01;23.20;99.90
7163;DHT22;3623;47.098;15.446;2023-09-07T09:50:32;24.50;99.90
7163;DHT22;3623;47.098;15.446;2023-09-07T09:53:11;24.00;99.90
7163;DHT22;3623;47.098;15.446;2023-09-07T09:55:47;23.50;99.90
7163;DHT22;3623;47.098;15.446;2023-09-07T09:58:15;23.20;99.90
7163;DHT22;3623;47.098;15.446;2023-09-07T10:00:47;22.90;99.90
7163;DHT22;3623;47.098;15.446;2023-09-07T10:03:18;23.10;99.90
7163;DHT22;3623;47.098;15.446;2023-09-07T10:05:49;23.20;99.90
7163;DHT22;3623;47.098;15.446;2023-09-07T10:08:20;23.30;99.90
7163;DHT22;3623;47.098;15.446;2023-09-07T10:10:49;23.40;99.90
7163;DHT22;3623;47.098;15.446;2023-09-07T10:13:29;23.30;99.90
7163;DHT22;3623;47.098;15.446;2023-09-07T10:16:00;23.50;99.90
7163;DHT22;3623;47.098;15.446;2023-09-07T10:18:34;23.60;99.90
7163;DHT22;3623;47.098;15.446;2023-09-07T10:21:01;23.60;99.90
7163;DHT22;3623;47.098;15.446;2023-09-07T10:23:38;23.60;99.90
7163;DHT22;3623;47.098;15.446;2023-09-07T10:26:11;23.90;99.90
7163;DHT22;3623;47.098;15.446;2023-09-07T10:28:39;24.40;99.90
7163;DHT22;3623;47.098;15.446;2023-09-07T10:31:12;24.80;99.90
7163;DHT22;3623;47.098;15.446;2023-09-07T10:33:39;25.00;99.90
7163;DHT22;3623;47.098;15.446;2023-09-07T10:36:22;25.50;99.90
7163;DHT22;3623;47.098;15.446;2023-09-07T10:38:51;26.30;99.90
7163;DHT22;3623;47.098;15.446;2023-09-07T10:41:19;26.80;99.90
7163;DHT22;3623;47.098;15.446;2023-09-07T10:43:48;27.60;99.90
7163;DHT22;3623;47.098;15.446;2023-09-07T10:46:18;27.80;99.90
7163;DHT22;3623;47.098;15.446;2023-09-07T10:48:48;27.70;99.90
7163;DHT22;3623;47.098;15.446;2023-09-07T10:51:18;27.90;99.90
7163;DHT22;3623;47.098;15.446;2023-09-07T10:53:57;28.30;99.90
7163;DHT22;3623;47.098;15.446;2023-09-07T10:56:25;28.90;99.90
7163;DHT22;3623;47.098;15.446;2023-09-07T10:58:54;29.60;99.90
7163;DHT22;3623;47.098;15.446;2023-09-07T11:01:21;29.90;99.90
7163;DHT22;3623;47.098;15.446;2023-09-07T11:03:48;30.30;99.00
7163;DHT22;3623;47.098;15.446;2023-09-07T11:06:17;29.90;99.10
7163;DHT22;3623;47.098;15.446;2023-09-07T11:08:46;30.70;97.90
7163;DHT22;3623;47.098;15.446;2023-09-07T11:11:15;31.30;98.80
7163;DHT22;3623;47.098;15.446;2023-09-07T11:13:42;31.60;97.90
7163;DHT22;3623;47.098;15.446;2023-09-07T11:16:10;32.30;97.00
7163;DHT22;3623;47.098;15.446;2023-09-07T11:18:37;31.80;95.10
7163;DHT22;3623;47.098;15.446;2023-09-07T11:21:04;31.90;95.60
7163;DHT22;3623;47.098;15.446;2023-09-07T11:23:33;31.80;93.70
7163;DHT22;3623;47.098;15.446;2023-09-07T11:26:04;31.80;93.60
7163;DHT22;3623;47.098;15.446;2023-09-07T11:28:33;32.00;94.90
7163;DHT22;3623;47.098;15.446;2023-09-07T11:31:00;32.40;94.00
7163;DHT22;3623;47.098;15.446;2023-09-07T11:33:31;31.60;94.50
7163;DHT22;3623;47.098;15.446;2023-09-07T11:35:59;32.00;94.30
7163;DHT22;3623;47.098;15.446;2023-09-07T11:38:29;33.20;92.70
7163;DHT22;3623;47.098;15.446;2023-09-07T11:40:56;33.60;92.30
7163;DHT22;3623;47.098;15.446;2023-09-07T11:43:24;33.20;92.50
7163;DHT22;3623;47.098;15.446;2023-09-07T11:45:53;33.90;91.50
7163;DHT22;3623;47.098;15.446;2023-09-07T11:48:20;33.90;91.00
7163;DHT22;3623;47.098;15.446;2023-09-07T11:50:47;33.70;92.30
7163;DHT22;3623;47.098;15.446;2023-09-07T11:53:15;33.90;91.20
7163;DHT22;3623;47.098;15.446;2023-09-07T11:55:43;33.20;90.10
7163;DHT22;3623;47.098;15.446;2023-09-07T11:58:11;32.50;91.30
7163;DHT22;3623;47.098;15.446;2023-09-07T12:00:38;33.00;91.70
7163;DHT22;3623;47.098;15.446;2023-09-07T12:03:09;34.20;92.00
7163;DHT22;3623;47.098;15.446;2023-09-07T12:05:36;34.30;91.30
7163;DHT22;3623;47.098;15.446;2023-09-07T12:08:05;34.50;91.00
7163;DHT22;3623;47.098;15.446;2023-09-07T12:10:33;35.30;91.40
7163;DHT22;3623;47.098;15.446;2023-09-07T12:13:00;35.70;91.00
7163;DHT22;3623;47.098;15.446;2023-09-07T12:15:27;35.20;89.50
7163;DHT22;3623;47.098;15.446;2023-09-07T12:17:55;35.40;90.40
7163;DHT22;3623;47.098;15.446;2023-09-07T12:20:25;35.30;89.60
7163;DHT22;3623;47.098;15.446;2023-09-07T12:22:52;35.20;87.90
7163;DHT22;3623;47.098;15.446;2023-09-07T12:25:20;35.30;89.20
7163;DHT22;3623;47.098;15.446;2023-09-07T12:27:47;35.50;91.10
7163;DHT22;3623;47.098;15.446;2023-09-07T12:30:17;35.60;86.90
7163;DHT22;3623;47.098;15.446;2023-09-07T12:32:46;35.30;87.10
7163;DHT22;3623;47.098;15.446;2023-09-07T12:35:13;35.60;89.10
7163;DHT22;3623;47.098;15.446;2023-09-07T12:37:43;34.50;86.80
7163;DHT22;3623;47.098;15.446;2023-09-07T12:40:11;34.30;87.60
7163;DHT22;3623;47.098;15.446;2023-09-07T12:42:40;34.40;85.90
7163;DHT22;3623;47.098;15.446;2023-09-07T12:45:08;34.70;86.40
7163;DHT22;3623;47.098;15.446;2023-09-07T12:47:36;34.10;84.30
7163;DHT22;3623;47.098;15.446;2023-09-07T12:50:04;34.30;84.90
7163;DHT22;3623;47.098;15.446;2023-09-07T12:52:33;34.60;83.60
7163;DHT22;3623;47.098;15.446;2023-09-07T12:55:04;34.90;86.50
7163;DHT22;3623;47.098;15.446;2023-09-07T12:57:31;34.90;82.40
7163;DHT22;3623;47.098;15.446;2023-09-07T12:59:59;35.50;88.10
7163;DHT22;3623;47.098;15.446;2023-09-07T13:02:26;35.40;83.80
7163;DHT22;3623;47.098;15.446;2023-09-07T13:04:54;35.10;84.10
7163;DHT22;3623;47.098;15.446;2023-09-07T13:07:22;35.50;83.50
7163;DHT22;3623;47.098;15.446;2023-09-07T13:09:59;35.80;84.20
7163;DHT22;3623;47.098;15.446;2023-09-07T13:13:27;36.40;81.60
7163;DHT22;3623;47.098;15.446;2023-09-07T13:16:12;36.30;82.20
7163;DHT22;3623;47.098;15.446;2023-09-07T13:19:38;36.70;79.30
7163;DHT22;3623;47.098;15.446;2023-09-07T13:23:11;37.70;80.40
7163;DHT22;3623;47.098;15.446;2023-09-07T13:26:37;35.50;79.80
7163;DHT22;3623;47.098;15.446;2023-09-07T13:29:34;35.60;82.60
7163;DHT22;3623;47.098;15.446;2023-09-07T13:32:23;31.20;85.40
7163;DHT22;3623;47.098;15.446;2023-09-07T13:34:51;30.20;86.10
7163;DHT22;3623;47.098;15.446;2023-09-07T13:37:18;29.70;89.80
7163;DHT22;3623;47.098;15.446;2023-09-07T13:39:45;29.20;91.00
7163;DHT22;3623;47.098;15.446;2023-09-07T13:42:13;29.00;91.40
7163;DHT22;3623;47.098;15.446;2023-09-07T13:44:42;28.60;91.50
7163;DHT22;3623;47.098;15.446;2023-09-07T13:47:11;28.10;93.00
7163;DHT22;3623;47.098;15.446;2023-09-07T13:49:40;27.90;92.20
7163;DHT22;3623;47.098;15.446;2023-09-07T13:52:33;27.60;91.00
7163;DHT22;3623;47.098;15.446;2023-09-07T13:55:09;27.20;90.50
7163;DHT22;3623;47.098;15.446;2023-09-07T13:57:40;28.70;91.70
7163;DHT22;3623;47.098;15.446;2023-09-07T14:00:14;26.70;90.50
7163;DHT22;3623;47.098;15.446;2023-09-07T14:02:44;26.30;91.80
7163;DHT22;3623;47.098;15.446;2023-09-07T14:05:33;27.40;93.80
7163;DHT22;3623;47.098;15.446;2023-09-07T14:08:22;27.10;92.30
7163;DHT22;3623;47.098;15.446;2023-09-07T14:10:55;26.80;92.90
7163;DHT22;3623;47.098;15.446;2023-09-07T14:13:23;26.50;92.70
7163;DHT22;3623;47.098;15.446;2023-09-07T14:15:51;26.60;94.40
7163;DHT22;3623;47.098;15.446;2023-09-07T14:18:18;27.50;92.60
7163;DHT22;3623;47.098;15.446;2023-09-07T14:20:46;28.40;91.00
7163;DHT22;3623;47.098;15.446;2023-09-07T14:23:13;29.30;91.10
7163;DHT22;3623;47.098;15.446;2023-09-07T14:25:40;30.20;90.00
7163;DHT22;3623;47.098;15.446;2023-09-07T14:28:11;30.50;90.00
7163;DHT22;3623;47.098;15.446;2023-09-07T14:30:38;30.60;90.10
7163;DHT22;3623;47.098;15.446;2023-09-07T14:33:07;30.50;89.10
7163;DHT22;3623;47.098;15.446;2023-09-07T14:35:35;30.80;88.20
7163;DHT22;3623;47.098;15.446;2023-09-07T14:38:02;31.30;87.50
7163;DHT22;3623;47.098;15.446;2023-09-07T14:40:30;31.30;85.00
7163;DHT22;3623;47.098;15.446;2023-09-07T14:42:58;31.20;87.50
7163;DHT22;3623;47.098;15.446;2023-09-07T14:45:25;30.40;87.60
7163;DHT22;3623;47.098;15.446;2023-09-07T14:47:52;29.40;88.10
7163;DHT22;3623;47.098;15.446;2023-09-07T14:50:21;28.50;90.30
7163;DHT22;3623;47.098;15.446;2023-09-07T14:52:48;27.80;91.70
7163;DHT22;3623;47.098;15.446;2023-09-07T14:55:16;27.20;91.80
7163;DHT22;3623;47.098;15.446;2023-09-07T14:57:45;26.80;92.50
7163;DHT22;3623;47.098;15.446;2023-09-07T15:00:12;26.50;92.30
7163;DHT22;3623;47.098;15.446;2023-09-07T15:02:40;26.30;92.30
7163;DHT22;3623;47.098;15.446;2023-09-07T15:05:07;26.00;93.10
7163;DHT22;3623;47.098;15.446;2023-09-07T15:07:36;26.00;93.30
7163;DHT22;3623;47.098;15.446;2023-09-07T15:10:04;25.90;94.20
7163;DHT22;3623;47.098;15.446;2023-09-07T15:12:31;25.90;93.60
7163;DHT22;3623;47.098;15.446;2023-09-07T15:14:58;25.90;92.30
7163;DHT22;3623;47.098;15.446;2023-09-07T15:17:27;26.30;92.90
7163;DHT22;3623;47.098;15.446;2023-09-07T15:19:55;26.90;92.60
7163;DHT22;3623;47.098;15.446;2023-09-07T15:22:22;27.40;92.60
7163;DHT22;3623;47.098;15.446;2023-09-07T15:24:51;27.30;93.80
7163;DHT22;3623;47.098;15.446;2023-09-07T15:27:18;27.40;93.40
7163;DHT22;3623;47.098;15.446;2023-09-07T15:29:46;27.90;92.80
7163;DHT22;3623;47.098;15.446;2023-09-07T15:32:13;28.00;92.50
7163;DHT22;3623;47.098;15.446;2023-09-07T15:34:40;27.70;92.10
7163;DHT22;3623;47.098;15.446;2023-09-07T15:37:08;27.30;92.50
7163;DHT22;3623;47.098;15.446;2023-09-07T15:39:35;26.90;93.00
7163;DHT22;3623;47.098;15.446;2023-09-07T15:42:04;26.40;93.40
7163;DHT22;3623;47.098;15.446;2023-09-07T15:44:31;25.90;93.30
7163;DHT22;3623;47.098;15.446;2023-09-07T15:46:59;25.40;93.60
7163;DHT22;3623;47.098;15.446;2023-09-07T15:49:26;25.20;93.90
7163;DHT22;3623;47.098;15.446;2023-09-07T15:51:53;25.00;94.70
7163;DHT22;3623;47.098;15.446;2023-09-07T15:54:20;24.80;94.20
7163;DHT22;3623;47.098;15.446;2023-09-07T15:56:48;24.60;95.60
7163;DHT22;3623;47.098;15.446;2023-09-07T15:59:17;24.50;95.30